WetterOnline ( http://www.wetteronline.de )

Wetter aktuell PLZ Bereich 09548

Aktuelles Wetter: Zinnwald (882m)

6-stündlich | Neueste Meldungen
Ortszeit Temperatur Wetter
Di, 24.04. 14:00 14.8° C wolkenlos
Di, 24.04. 8:00 8.6° C wolkenlos
Di, 24.04. 2:00 8.3° C leicht bewölkt
Mo, 23.04. 20:00 11.0° C wolkig
Mo, 23.04. 14:00 15.2° C bedeckt
Mo, 23.04. 8:00 14.3° C fast wolkenlos
Mo, 23.04. 2:00 14.0° C bewölkt
So, 22.04. 20:00 16.1° C wolkenlos
Ortszeit Temperatur Wetter
Di, 24.04. 16:10 13.6° C leicht bewölkt
Di, 24.04. 16:00 13.8° C wolkig
Di, 24.04. 15:50 13.8° C wolkig
Di, 24.04. 15:40 13.8° C bewölkt
Di, 24.04. 15:30 14.1° C wolkig
Di, 24.04. 15:20 14.1° C wolkig
Di, 24.04. 15:00 14.3° C leicht bewölkt
Di, 24.04. 14:30 14.0° C leicht bewölkt
Di, 24.04. 14:00 14.8° C wolkenlos
Di, 24.04. 13:30 13.6° C fast wolkenlos
Di, 24.04. 13:00 13.6° C wolkig
Ortszeit Relative Feuchte Sichtweite
Di, 24.04. 14:00 52% 30 km
Di, 24.04. 8:00 94% 6 km
Di, 24.04. 2:00 90% 12 km
Mo, 23.04. 20:00 93% 19 km
Mo, 23.04. 14:00 70% 40 km
Mo, 23.04. 8:00 68% 55 km
Mo, 23.04. 2:00 67% 24 km
So, 22.04. 20:00 65% 26 km
Ortszeit Relative Feuchte Sichtweite
Di, 24.04. 16:10 54% -
Di, 24.04. 16:00 53% 60 km
Di, 24.04. 15:50 53% -
Di, 24.04. 15:40 54% -
Di, 24.04. 15:30 53% 50 km
Di, 24.04. 15:20 53% -
Di, 24.04. 15:00 49% 35 km
Di, 24.04. 14:30 50% 35 km
Di, 24.04. 14:00 52% 30 km
Di, 24.04. 13:30 50% 40 km
Di, 24.04. 13:00 54% 45 km
Ortszeit Niederschlagsmenge Niederschlagsart
Di, 24.04. 14:00 0.0 l/m2 in 6 Std. -
Di, 24.04. 8:00 0.3 l/m2 in 12 Std. -
Di, 24.04. 2:00 0.3 l/m2 in 6 Std. Regen
Mo, 23.04. 20:00 1 l/m2 in 12 Std. Regen
Mo, 23.04. 14:00 0.1 l/m2 in 6 Std. Niederschlag
Mo, 23.04. 8:00 0.1 l/m2 in 12 Std. Regen
Mo, 23.04. 2:00 0.0 l/m2 in 6 Std. -
So, 22.04. 20:00 0.0 l/m2 in 12 Std. -
Ortszeit Niederschlagsmenge Niederschlagsart
Di, 24.04. 16:10 keine Meldung -
Di, 24.04. 16:00 0.0 l/m2 in 1 Std. -
Di, 24.04. 15:50 keine Meldung -
Di, 24.04. 15:40 keine Meldung -
Di, 24.04. 15:30 0.0 l/m2 in 1 Std. -
Di, 24.04. 15:20 keine Meldung -
Di, 24.04. 15:00 0.0 l/m2 in 1 Std. -
Di, 24.04. 14:30 0.0 l/m2 in 1 Std. -
Di, 24.04. 14:00 0.0 l/m2 in 1 Std. -
Di, 24.04. 13:30 0.0 l/m2 in 1 Std. -
Di, 24.04. 13:00 0.0 l/m2 in 1 Std. -
Ortszeit Stärke Spitze Richtung
km/h Bft. km/h Grad Sektor
Di, 24.04. 14:00 20 4 46 250° W
Di, 24.04. 8:00 14 3 22 230° SW
Di, 24.04. 2:00 13 3 31 330° NW
Mo, 23.04. 20:00 17 3 44 310° NW
Mo, 23.04. 14:00 20 4 35 310° NW
Mo, 23.04. 8:00 15 3 31 260° W
Mo, 23.04. 2:00 15 3 30 170° S
So, 22.04. 20:00 7 2 29 160° S
Ortszeit Stärke Spitze Richtung
km/h Bft. km/h Grad Sektor
Di, 24.04. 16:10 20 4 - 260° W
Di, 24.04. 16:00 22 4 35 250° W
Di, 24.04. 15:50 22 4 - 250° W
Di, 24.04. 15:40 22 4 - 250° W
Di, 24.04. 15:30 22 4 36 260° W
Di, 24.04. 15:20 22 4 - 260° W
Di, 24.04. 15:00 26 4 43 260° W
Di, 24.04. 14:30 28 4 43 240° SW
Di, 24.04. 14:00 20 4 41 250° W
Di, 24.04. 13:30 25 4 40 270° W
Di, 24.04. 13:00 25 4 43 260° W
Ortszeit Untergrenze Bedeckung Gattung
total tief tief mittel hoch
Di, 24.04. 14:00 - 0/8 0/8 - - -
Di, 24.04. 8:00 - 0/8 0/8 - - -
Di, 24.04. 2:00 1110 m 3/8 3/8 - - -
Mo, 23.04. 20:00 1500 m 7/8 1/8 - - -
Mo, 23.04. 14:00 840 m 8/8 8/8 - - -
Mo, 23.04. 8:00 4500 m 1/8 1/8 - - -
Mo, 23.04. 2:00 6600 m 7/8 7/8 - - -
So, 22.04. 20:00 - 0/8 0/8 - - -
Ortszeit Bedeckungsgrad in Achtel und Wolkenuntergrenze
Di, 24.04. 16:10 3(3600m)
Di, 24.04. 16:00 6(3600m)
Di, 24.04. 15:50 6(3600m)
Di, 24.04. 15:40 7(3900m)
Di, 24.04. 15:30 4(3900m) 5(5100m)
Di, 24.04. 15:20 4(3900m) 5(5100m)
Di, 24.04. 15:00 3(5700m) 4(6300m)
Di, 24.04. 14:30 4(6000m)
Di, 24.04. 14:00 keine Wolken
Di, 24.04. 13:30 1(8100m)
Di, 24.04. 13:00 2(1020m) 4(5100m) 6(5400m)
Ortszeit Stationsdruck (hPa) Tendenz (hPa in 3 Std.)
Di, 24.04. 14:00 916 - 0,2
Di, 24.04. 8:00 916 0,0
Di, 24.04. 2:00 915 + 0,9
Mo, 23.04. 20:00 914 + 0,3
Mo, 23.04. 14:00 914 0,0
Mo, 23.04. 8:00 914 + 0,6
Mo, 23.04. 2:00 914 - 0,8
So, 22.04. 20:00 915 - 0,5
Ortszeit Stationsdruck (hPa) Tendenz (hPa in 3 Std.)
Di, 24.04. 16:10 915 keine Meldung
Di, 24.04. 16:00 915 - 0,6
Di, 24.04. 15:50 915 keine Meldung
Di, 24.04. 15:40 915 keine Meldung
Di, 24.04. 15:30 915 - 0,3
Di, 24.04. 15:20 915 keine Meldung
Di, 24.04. 15:00 915 - 0,3
Di, 24.04. 14:30 915 - 0,4
Di, 24.04. 14:00 916 - 0,2
Di, 24.04. 13:30 916 - 0,2
Di, 24.04. 13:00 916 - 0,3
Ortszeit Schneehöhe (cm)
Di, 24.04. 14:00 0
Di, 24.04. 8:00 0
Di, 24.04. 2:00 0
Mo, 23.04. 20:00 0
Mo, 23.04. 14:00 0
Mo, 23.04. 8:00 0
Mo, 23.04. 2:00 0
So, 22.04. 20:00 0
Ortszeit Schneehöhe (cm)
Di, 24.04. 16:10 0
Di, 24.04. 16:00 0
Di, 24.04. 15:50 0
Di, 24.04. 15:40 0
Di, 24.04. 15:30 0
Di, 24.04. 15:20 0
Di, 24.04. 15:00 0
Di, 24.04. 14:30 0
Di, 24.04. 14:00 0
Di, 24.04. 13:30 0
Di, 24.04. 13:00 0
Link zu dieser Seite / Seite empfehlen

Das Wetter in ...